Almira, Washington
Current Conditions -  °F | °C
As of 12:53 AM on Monday 20 Oct 2014 (Local Time) from KEPH Reporting Station
Clear Clear  
Wind Chill: 54°   Ceiling: Unl
Heat Index: 54°   Visibility: 10mi
Dew Point: 47°   Wind: 10mph
Humidity: 77%   Direction: 310°NW
Pressure: 29.7"   Gusts: NA
Location:  47.71°N, 118.94°W
Report Text: KEPH 200753Z AUTO 31009KT 10SM CLR 12/08 A2970 RMK AO2 SLP055 T01220083 402110100
Loading
Personal Weather Stations






























Interactive Weather Map New forecast layout! Learn more

10-Day Weather Forecast

Advertisements
Track Severe Weather on mobile